sensor_id;sensor_type;location;lat;lon;timestamp;temperature;humidity
42145;DHT22;27813;43.516;11.890;2023-05-21T04:35:13;15.80;82.20
42145;DHT22;27813;43.516;11.890;2023-05-21T04:39:20;15.90;81.90
42145;DHT22;27813;43.516;11.890;2023-05-21T04:43:25;16.10;81.70
42145;DHT22;27813;43.516;11.890;2023-05-21T04:47:33;16.20;81.50
42145;DHT22;27813;43.516;11.890;2023-05-21T04:51:39;16.40;81.20
42145;DHT22;27813;43.516;11.890;2023-05-21T04:55:42;16.70;81.00
42145;DHT22;27813;43.516;11.890;2023-05-21T04:59:46;17.00;80.30
42145;DHT22;27813;43.516;11.890;2023-05-21T05:03:52;17.40;79.50
42145;DHT22;27813;43.516;11.890;2023-05-21T05:07:57;17.50;79.30
42145;DHT22;27813;43.516;11.890;2023-05-21T05:12:01;17.70;79.20
42145;DHT22;27813;43.516;11.890;2023-05-21T05:16:05;18.00;78.90
42145;DHT22;27813;43.516;11.890;2023-05-21T05:20:10;18.20;78.60
42145;DHT22;27813;43.516;11.890;2023-05-21T05:24:14;18.80;77.80
42145;DHT22;27813;43.516;11.890;2023-05-21T05:28:19;19.70;75.90
42145;DHT22;27813;43.516;11.890;2023-05-21T05:32:23;20.90;73.50
42145;DHT22;27813;43.516;11.890;2023-05-21T05:36:27;21.90;70.90
42145;DHT22;27813;43.516;11.890;2023-05-21T05:40:31;21.90;70.80
42145;DHT22;27813;43.516;11.890;2023-05-21T05:44:35;21.90;71.30
42145;DHT22;27813;43.516;11.890;2023-05-21T05:48:39;22.00;71.50
42145;DHT22;27813;43.516;11.890;2023-05-21T05:52:44;23.10;70.20
42145;DHT22;27813;43.516;11.890;2023-05-21T05:56:48;25.10;65.50
42145;DHT22;27813;43.516;11.890;2023-05-21T06:00:52;26.90;61.40
42145;DHT22;27813;43.516;11.890;2023-05-21T06:04:56;28.10;58.40
42145;DHT22;27813;43.516;11.890;2023-05-21T06:09:01;29.00;56.40
42145;DHT22;27813;43.516;11.890;2023-05-21T06:13:05;29.70;55.00
42145;DHT22;27813;43.516;11.890;2023-05-21T06:17:09;30.40;53.60
42145;DHT22;27813;43.516;11.890;2023-05-21T06:21:13;30.90;52.60
42145;DHT22;27813;43.516;11.890;2023-05-21T06:25:17;31.40;51.90
42145;DHT22;27813;43.516;11.890;2023-05-21T06:29:21;31.90;50.80
42145;DHT22;27813;43.516;11.890;2023-05-21T06:33:25;32.50;49.90
42145;DHT22;27813;43.516;11.890;2023-05-21T06:37:30;33.00;48.90
42145;DHT22;27813;43.516;11.890;2023-05-21T06:41:34;33.50;47.80
42145;DHT22;27813;43.516;11.890;2023-05-21T06:45:56;33.80;47.00
42145;DHT22;27813;43.516;11.890;2023-05-21T06:50:10;34.00;46.20
42145;DHT22;27813;43.516;11.890;2023-05-21T06:54:14;34.30;44.70
42145;DHT22;27813;43.516;11.890;2023-05-21T06:58:18;33.50;43.90
42145;DHT22;27813;43.516;11.890;2023-05-21T07:02:24;31.60;45.50
42145;DHT22;27813;43.516;11.890;2023-05-21T07:06:29;29.80;48.80
42145;DHT22;27813;43.516;11.890;2023-05-21T07:10:33;28.60;51.30
42145;DHT22;27813;43.516;11.890;2023-05-21T07:14:39;27.80;52.20
42145;DHT22;27813;43.516;11.890;2023-05-21T07:18:43;27.20;53.60
42145;DHT22;27813;43.516;11.890;2023-05-21T07:22:48;26.80;53.50
42145;DHT22;27813;43.516;11.890;2023-05-21T07:26:53;26.40;54.40
42145;DHT22;27813;43.516;11.890;2023-05-21T07:30:57;26.30;54.70
42145;DHT22;27813;43.516;11.890;2023-05-21T07:35:08;26.30;54.30
42145;DHT22;27813;43.516;11.890;2023-05-21T07:39:14;26.20;53.70
42145;DHT22;27813;43.516;11.890;2023-05-21T07:43:23;26.20;54.50
42145;DHT22;27813;43.516;11.890;2023-05-21T07:47:27;26.00;54.50
42145;DHT22;27813;43.516;11.890;2023-05-21T07:51:38;25.80;55.30
42145;DHT22;27813;43.516;11.890;2023-05-21T07:55:50;25.50;55.20
42145;DHT22;27813;43.516;11.890;2023-05-21T07:59:59;25.20;55.20
42145;DHT22;27813;43.516;11.890;2023-05-21T08:04:08;24.90;55.90
42145;DHT22;27813;43.516;11.890;2023-05-21T08:08:18;24.50;56.30
42145;DHT22;27813;43.516;11.890;2023-05-21T08:12:28;24.40;56.70
42145;DHT22;27813;43.516;11.890;2023-05-21T08:16:32;24.40;56.80
42145;DHT22;27813;43.516;11.890;2023-05-21T08:20:36;24.40;56.70
42145;DHT22;27813;43.516;11.890;2023-05-21T08:24:40;24.30;56.40
42145;DHT22;27813;43.516;11.890;2023-05-21T08:28:47;24.20;56.80
42145;DHT22;27813;43.516;11.890;2023-05-21T08:32:51;24.20;57.00
42145;DHT22;27813;43.516;11.890;2023-05-21T08:36:55;24.40;57.20
42145;DHT22;27813;43.516;11.890;2023-05-21T08:41:23;24.60;57.10
42145;DHT22;27813;43.516;11.890;2023-05-21T08:45:32;24.90;57.20
42145;DHT22;27813;43.516;11.890;2023-05-21T08:50:27;25.20;57.10
42145;DHT22;27813;43.516;11.890;2023-05-21T08:54:55;25.30;55.70
42145;DHT22;27813;43.516;11.890;2023-05-21T08:59:30;25.20;56.00
42145;DHT22;27813;43.516;11.890;2023-05-21T09:03:39;25.00;55.90
42145;DHT22;27813;43.516;11.890;2023-05-21T09:08:04;24.90;56.00
42145;DHT22;27813;43.516;11.890;2023-05-21T09:13:04;24.80;56.40
42145;DHT22;27813;43.516;11.890;2023-05-21T09:17:13;25.00;56.80
42145;DHT22;27813;43.516;11.890;2023-05-21T09:21:28;25.30;56.60
42145;DHT22;27813;43.516;11.890;2023-05-21T09:25:51;25.80;55.80
42145;DHT22;27813;43.516;11.890;2023-05-21T09:30:02;26.00;54.50
42145;DHT22;27813;43.516;11.890;2023-05-21T09:34:07;26.40;54.40
42145;DHT22;27813;43.516;11.890;2023-05-21T09:38:11;28.20;52.10
42145;DHT22;27813;43.516;11.890;2023-05-21T09:42:15;30.10;48.60
42145;DHT22;27813;43.516;11.890;2023-05-21T09:46:25;30.30;47.40
42145;DHT22;27813;43.516;11.890;2023-05-21T09:50:30;29.50;48.30
42145;DHT22;27813;43.516;11.890;2023-05-21T09:54:34;28.80;50.00
42145;DHT22;27813;43.516;11.890;2023-05-21T09:58:38;28.40;50.50
42145;DHT22;27813;43.516;11.890;2023-05-21T10:02:46;28.50;50.70
42145;DHT22;27813;43.516;11.890;2023-05-21T10:06:51;29.80;49.00
42145;DHT22;27813;43.516;11.890;2023-05-21T10:10:55;30.90;46.70
42145;DHT22;27813;43.516;11.890;2023-05-21T10:15:02;31.10;46.50
42145;DHT22;27813;43.516;11.890;2023-05-21T10:19:08;32.00;44.80
42145;DHT22;27813;43.516;11.890;2023-05-21T10:23:14;31.90;43.50
42145;DHT22;27813;43.516;11.890;2023-05-21T10:27:19;31.20;44.30
42145;DHT22;27813;43.516;11.890;2023-05-21T10:31:24;31.30;44.30
42145;DHT22;27813;43.516;11.890;2023-05-21T10:35:29;31.80;43.30
42145;DHT22;27813;43.516;11.890;2023-05-21T10:39:35;31.70;43.30
42145;DHT22;27813;43.516;11.890;2023-05-21T10:53:01;35.50;39.30
42145;DHT22;27813;43.516;11.890;2023-05-21T11:01:36;32.80;41.90
42145;DHT22;27813;43.516;11.890;2023-05-21T11:05:53;33.10;41.30
42145;DHT22;27813;43.516;11.890;2023-05-21T11:14:40;31.90;40.90
42145;DHT22;27813;43.516;11.890;2023-05-21T11:22:49;29.80;44.30
42145;DHT22;27813;43.516;11.890;2023-05-21T11:31:26;28.60;45.40
42145;DHT22;27813;43.516;11.890;2023-05-21T11:39:53;28.20;46.50
42145;DHT22;27813;43.516;11.890;2023-05-21T11:44:01;29.00;46.10
42145;DHT22;27813;43.516;11.890;2023-05-21T11:48:05;29.30;44.70
42145;DHT22;27813;43.516;11.890;2023-05-21T11:52:11;29.60;44.10
42145;DHT22;27813;43.516;11.890;2023-05-21T11:56:15;30.00;43.80
42145;DHT22;27813;43.516;11.890;2023-05-21T12:00:20;30.50;43.20
42145;DHT22;27813;43.516;11.890;2023-05-21T12:04:32;30.50;42.40
42145;DHT22;27813;43.516;11.890;2023-05-21T12:08:39;30.30;43.00
42145;DHT22;27813;43.516;11.890;2023-05-21T12:12:44;30.30;42.60
42145;DHT22;27813;43.516;11.890;2023-05-21T12:16:58;30.20;42.30
42145;DHT22;27813;43.516;11.890;2023-05-21T12:21:03;30.40;42.80
42145;DHT22;27813;43.516;11.890;2023-05-21T12:25:08;30.80;42.00
42145;DHT22;27813;43.516;11.890;2023-05-21T12:29:13;30.90;41.90
42145;DHT22;27813;43.516;11.890;2023-05-21T12:33:17;30.70;41.20
42145;DHT22;27813;43.516;11.890;2023-05-21T12:37:26;30.40;41.10
42145;DHT22;27813;43.516;11.890;2023-05-21T12:41:33;30.00;42.00
42145;DHT22;27813;43.516;11.890;2023-05-21T12:45:37;29.80;42.00
42145;DHT22;27813;43.516;11.890;2023-05-21T12:49:43;29.60;42.50
42145;DHT22;27813;43.516;11.890;2023-05-21T12:53:49;29.50;42.50
42145;DHT22;27813;43.516;11.890;2023-05-21T12:58:03;29.60;42.90
42145;DHT22;27813;43.516;11.890;2023-05-21T13:02:20;29.10;43.10
42145;DHT22;27813;43.516;11.890;2023-05-21T13:06:24;29.30;44.00
42145;DHT22;27813;43.516;11.890;2023-05-21T13:10:32;29.60;43.50
42145;DHT22;27813;43.516;11.890;2023-05-21T13:14:36;29.40;43.10
42145;DHT22;27813;43.516;11.890;2023-05-21T13:18:40;29.20;43.80
42145;DHT22;27813;43.516;11.890;2023-05-21T13:22:51;29.30;43.50
42145;DHT22;27813;43.516;11.890;2023-05-21T13:26:55;29.30;43.20
42145;DHT22;27813;43.516;11.890;2023-05-21T13:31:01;29.40;43.10
42145;DHT22;27813;43.516;11.890;2023-05-21T13:35:06;29.50;43.10
42145;DHT22;27813;43.516;11.890;2023-05-21T13:39:10;29.50;43.10
42145;DHT22;27813;43.516;11.890;2023-05-21T13:43:14;29.10;43.80
42145;DHT22;27813;43.516;11.890;2023-05-21T13:47:18;28.50;44.50
42145;DHT22;27813;43.516;11.890;2023-05-21T13:51:22;28.50;45.70
42145;DHT22;27813;43.516;11.890;2023-05-21T13:55:41;29.20;45.10
42145;DHT22;27813;43.516;11.890;2023-05-21T13:59:46;29.70;44.30
42145;DHT22;27813;43.516;11.890;2023-05-21T14:03:50;30.10;43.80
42145;DHT22;27813;43.516;11.890;2023-05-21T14:07:55;30.40;43.40
42145;DHT22;27813;43.516;11.890;2023-05-21T14:11:59;30.30;42.20
42145;DHT22;27813;43.516;11.890;2023-05-21T14:16:04;30.00;42.50
42145;DHT22;27813;43.516;11.890;2023-05-21T14:20:09;29.70;43.20
42145;DHT22;27813;43.516;11.890;2023-05-21T14:24:17;29.60;43.20
42145;DHT22;27813;43.516;11.890;2023-05-21T14:28:22;29.00;43.80
42145;DHT22;27813;43.516;11.890;2023-05-21T14:33:38;28.80;44.50
42145;DHT22;27813;43.516;11.890;2023-05-21T14:37:42;29.10;44.60
42145;DHT22;27813;43.516;11.890;2023-05-21T14:41:46;29.20;44.00
42145;DHT22;27813;43.516;11.890;2023-05-21T14:45:50;28.70;44.20
42145;DHT22;27813;43.516;11.890;2023-05-21T14:49:55;28.00;45.30
42145;DHT22;27813;43.516;11.890;2023-05-21T14:53:59;27.50;46.30
42145;DHT22;27813;43.516;11.890;2023-05-21T14:58:04;27.10;47.00
42145;DHT22;27813;43.516;11.890;2023-05-21T15:02:08;26.80;47.70
42145;DHT22;27813;43.516;11.890;2023-05-21T15:06:12;26.70;48.20
42145;DHT22;27813;43.516;11.890;2023-05-21T15:10:16;26.50;48.70
42145;DHT22;27813;43.516;11.890;2023-05-21T15:14:20;26.30;49.00
42145;DHT22;27813;43.516;11.890;2023-05-21T15:18:25;25.90;49.50
42145;DHT22;27813;43.516;11.890;2023-05-21T15:22:30;25.60;50.00
42145;DHT22;27813;43.516;11.890;2023-05-21T15:26:34;25.20;50.60
42145;DHT22;27813;43.516;11.890;2023-05-21T15:30:39;25.30;51.60
42145;DHT22;27813;43.516;11.890;2023-05-21T15:34:43;25.90;50.70
42145;DHT22;27813;43.516;11.890;2023-05-21T15:38:47;26.30;49.80
42145;DHT22;27813;43.516;11.890;2023-05-21T15:42:51;26.60;49.00
42145;DHT22;27813;43.516;11.890;2023-05-21T15:46:55;26.70;48.70
42145;DHT22;27813;43.516;11.890;2023-05-21T15:51:00;26.80;48.10
42145;DHT22;27813;43.516;11.890;2023-05-21T15:55:06;26.80;48.10
42145;DHT22;27813;43.516;11.890;2023-05-21T15:59:12;26.90;48.10
42145;DHT22;27813;43.516;11.890;2023-05-21T16:03:18;26.80;48.20
42145;DHT22;27813;43.516;11.890;2023-05-21T16:07:28;26.50;48.80
42145;DHT22;27813;43.516;11.890;2023-05-21T16:11:32;26.40;49.50
42145;DHT22;27813;43.516;11.890;2023-05-21T16:15:36;26.40;49.20
42145;DHT22;27813;43.516;11.890;2023-05-21T16:19:41;26.20;48.70
42145;DHT22;27813;43.516;11.890;2023-05-21T16:23:46;26.00;48.90
42145;DHT22;27813;43.516;11.890;2023-05-21T16:27:50;25.80;49.00
42145;DHT22;27813;43.516;11.890;2023-05-21T16:31:54;25.40;49.70
42145;DHT22;27813;43.516;11.890;2023-05-21T16:36:00;25.00;50.00
42145;DHT22;27813;43.516;11.890;2023-05-21T16:40:06;24.70;50.50
42145;DHT22;27813;43.516;11.890;2023-05-21T16:44:10;24.50;51.00
42145;DHT22;27813;43.516;11.890;2023-05-21T16:48:15;24.50;51.40
42145;DHT22;27813;43.516;11.890;2023-05-21T16:52:19;24.50;51.60
42145;DHT22;27813;43.516;11.890;2023-05-21T16:56:23;24.40;51.80
42145;DHT22;27813;43.516;11.890;2023-05-21T17:00:30;24.40;51.90
42145;DHT22;27813;43.516;11.890;2023-05-21T17:04:36;24.40;52.00
42145;DHT22;27813;43.516;11.890;2023-05-21T17:08:48;24.20;52.00
42145;DHT22;27813;43.516;11.890;2023-05-21T17:13:04;24.00;52.30
42145;DHT22;27813;43.516;11.890;2023-05-21T17:17:25;23.90;52.60
42145;DHT22;27813;43.516;11.890;2023-05-21T17:21:30;23.70;52.70
42145;DHT22;27813;43.516;11.890;2023-05-21T17:25:36;23.50;52.90
42145;DHT22;27813;43.516;11.890;2023-05-21T17:29:42;23.50;53.10
42145;DHT22;27813;43.516;11.890;2023-05-21T17:33:46;23.50;53.30
42145;DHT22;27813;43.516;11.890;2023-05-21T17:37:51;23.40;53.20
42145;DHT22;27813;43.516;11.890;2023-05-21T17:41:59;23.20;53.30
42145;DHT22;27813;43.516;11.890;2023-05-21T17:46:04;23.00;53.70
42145;DHT22;27813;43.516;11.890;2023-05-21T17:50:08;22.90;54.10
42145;DHT22;27813;43.516;11.890;2023-05-21T17:54:13;22.60;54.60
42145;DHT22;27813;43.516;11.890;2023-05-21T17:58:17;22.50;55.30
42145;DHT22;27813;43.516;11.890;2023-05-21T18:02:23;22.30;55.40
42145;DHT22;27813;43.516;11.890;2023-05-21T18:06:28;22.20;55.60
42145;DHT22;27813;43.516;11.890;2023-05-21T18:10:37;22.10;55.80
42145;DHT22;27813;43.516;11.890;2023-05-21T18:14:41;22.00;55.80
42145;DHT22;27813;43.516;11.890;2023-05-21T18:18:45;21.90;56.10
42145;DHT22;27813;43.516;11.890;2023-05-21T18:22:52;21.60;56.50
42145;DHT22;27813;43.516;11.890;2023-05-21T18:26:57;21.40;56.90
42145;DHT22;27813;43.516;11.890;2023-05-21T18:31:01;21.10;57.20
42145;DHT22;27813;43.516;11.890;2023-05-21T18:35:08;20.90;57.70
42145;DHT22;27813;43.516;11.890;2023-05-21T18:39:17;20.70;58.00
42145;DHT22;27813;43.516;11.890;2023-05-21T18:49:36;20.20;58.90
42145;DHT22;27813;43.516;11.890;2023-05-21T18:53:46;19.90;59.60
42145;DHT22;27813;43.516;11.890;2023-05-21T18:57:51;19.70;60.00
42145;DHT22;27813;43.516;11.890;2023-05-21T19:01:55;19.40;60.60
42145;DHT22;27813;43.516;11.890;2023-05-21T19:06:16;19.30;61.00
42145;DHT22;27813;43.516;11.890;2023-05-21T19:10:21;19.10;61.40
42145;DHT22;27813;43.516;11.890;2023-05-21T19:14:25;19.00;61.80
42145;DHT22;27813;43.516;11.890;2023-05-21T19:18:31;18.90;62.00
42145;DHT22;27813;43.516;11.890;2023-05-21T19:22:36;19.00;61.90
42145;DHT22;27813;43.516;11.890;2023-05-21T19:26:40;18.90;62.10
42145;DHT22;27813;43.516;11.890;2023-05-21T19:30:45;18.90;62.20
42145;DHT22;27813;43.516;11.890;2023-05-21T19:34:49;18.70;62.40
42145;DHT22;27813;43.516;11.890;2023-05-21T19:38:57;18.50;62.60
42145;DHT22;27813;43.516;11.890;2023-05-21T19:43:03;18.30;63.20
42145;DHT22;27813;43.516;11.890;2023-05-21T19:47:08;18.10;64.10
42145;DHT22;27813;43.516;11.890;2023-05-21T19:51:18;18.00;64.60
42145;DHT22;27813;43.516;11.890;2023-05-21T19:55:25;17.80;65.00
42145;DHT22;27813;43.516;11.890;2023-05-21T19:59:32;17.60;65.40
42145;DHT22;27813;43.516;11.890;2023-05-21T20:03:36;17.50;65.90
42145;DHT22;27813;43.516;11.890;2023-05-21T20:07:42;17.40;66.30
42145;DHT22;27813;43.516;11.890;2023-05-21T20:11:47;17.40;66.30
42145;DHT22;27813;43.516;11.890;2023-05-21T20:15:53;17.40;66.20
42145;DHT22;27813;43.516;11.890;2023-05-21T20:20:06;17.30;66.40
42145;DHT22;27813;43.516;11.890;2023-05-21T20:24:15;17.10;66.80
42145;DHT22;27813;43.516;11.890;2023-05-21T20:28:22;17.00;67.20
42145;DHT22;27813;43.516;11.890;2023-05-21T20:32:27;16.80;67.70
42145;DHT22;27813;43.516;11.890;2023-05-21T20:36:35;16.60;68.10
42145;DHT22;27813;43.516;11.890;2023-05-21T20:40:43;16.40;68.60
42145;DHT22;27813;43.516;11.890;2023-05-21T20:44:49;16.30;69.00
42145;DHT22;27813;43.516;11.890;2023-05-21T20:49:01;16.10;69.60
42145;DHT22;27813;43.516;11.890;2023-05-21T20:53:19;16.10;69.90
42145;DHT22;27813;43.516;11.890;2023-05-21T20:57:27;16.00;70.10
42145;DHT22;27813;43.516;11.890;2023-05-21T21:01:33;15.90;70.20
42145;DHT22;27813;43.516;11.890;2023-05-21T21:05:40;15.90;70.40
42145;DHT22;27813;43.516;11.890;2023-05-21T21:09:47;15.90;70.40
42145;DHT22;27813;43.516;11.890;2023-05-21T21:13:51;15.80;70.50
42145;DHT22;27813;43.516;11.890;2023-05-21T21:17:56;15.80;70.70
42145;DHT22;27813;43.516;11.890;2023-05-21T21:22:02;15.80;70.80
42145;DHT22;27813;43.516;11.890;2023-05-21T21:26:07;15.90;70.60
42145;DHT22;27813;43.516;11.890;2023-05-21T21:30:12;16.00;70.30
42145;DHT22;27813;43.516;11.890;2023-05-21T21:34:20;15.80;70.50
42145;DHT22;27813;43.516;11.890;2023-05-21T21:38:31;15.60;71.00
42145;DHT22;27813;43.516;11.890;2023-05-21T21:42:35;15.50;71.40
42145;DHT22;27813;43.516;11.890;2023-05-21T21:46:40;15.50;71.70
42145;DHT22;27813;43.516;11.890;2023-05-21T21:50:46;15.40;71.90
42145;DHT22;27813;43.516;11.890;2023-05-21T21:54:53;15.30;72.00
42145;DHT22;27813;43.516;11.890;2023-05-21T21:58:58;15.20;72.20
42145;DHT22;27813;43.516;11.890;2023-05-21T22:03:03;15.00;72.60
42145;DHT22;27813;43.516;11.890;2023-05-21T22:07:07;15.00;72.80
42145;DHT22;27813;43.516;11.890;2023-05-21T22:11:14;14.90;73.10
42145;DHT22;27813;43.516;11.890;2023-05-21T22:15:20;14.80;73.30
42145;DHT22;27813;43.516;11.890;2023-05-21T22:19:32;14.80;73.60
42145;DHT22;27813;43.516;11.890;2023-05-21T22:23:39;14.80;73.50
42145;DHT22;27813;43.516;11.890;2023-05-21T22:27:43;14.70;73.80
42145;DHT22;27813;43.516;11.890;2023-05-21T22:31:48;14.70;73.90
42145;DHT22;27813;43.516;11.890;2023-05-21T22:35:53;14.60;74.10
42145;DHT22;27813;43.516;11.890;2023-05-21T22:39:57;14.50;74.40
42145;DHT22;27813;43.516;11.890;2023-05-21T22:44:02;14.30;74.60
42145;DHT22;27813;43.516;11.890;2023-05-21T22:48:08;14.20;75.00
42145;DHT22;27813;43.516;11.890;2023-05-21T22:52:13;14.10;75.30
42145;DHT22;27813;43.516;11.890;2023-05-21T22:56:19;14.00;75.60
42145;DHT22;27813;43.516;11.890;2023-05-21T23:00:25;13.90;75.70
42145;DHT22;27813;43.516;11.890;2023-05-21T23:04:31;13.80;76.10
42145;DHT22;27813;43.516;11.890;2023-05-21T23:08:46;13.80;76.30
42145;DHT22;27813;43.516;11.890;2023-05-21T23:12:50;13.70;76.40
42145;DHT22;27813;43.516;11.890;2023-05-21T23:16:54;13.70;76.60
42145;DHT22;27813;43.516;11.890;2023-05-21T23:20:58;13.70;76.40
42145;DHT22;27813;43.516;11.890;2023-05-21T23:25:02;13.60;76.40
42145;DHT22;27813;43.516;11.890;2023-05-21T23:29:06;13.50;76.60
